createdAt,value
2022-12-07T00:01:49.052Z,86.89
2022-12-07T00:04:18.920Z,86.13
2022-12-07T00:06:51.962Z,86.45
2022-12-07T00:09:24.151Z,86.48
2022-12-07T00:11:53.071Z,85.74
2022-12-07T00:14:22.485Z,85.95
2022-12-07T00:16:52.412Z,85.75
2022-12-07T00:19:20.862Z,86.63
2022-12-07T00:21:50.530Z,86.50
2022-12-07T00:24:20.057Z,85.87
2022-12-07T00:26:48.638Z,86.00
2022-12-07T00:29:18.891Z,84.81
2022-12-07T00:31:46.923Z,82.87
2022-12-07T00:34:16.816Z,83.28
2022-12-07T00:36:44.776Z,82.99
2022-12-07T00:39:14.396Z,83.08
2022-12-07T00:41:42.636Z,82.54
2022-12-07T00:44:11.610Z,81.76
2022-12-07T00:46:39.539Z,82.45
2022-12-07T00:49:09.013Z,82.60
2022-12-07T00:51:39.894Z,83.06
2022-12-07T00:54:08.175Z,81.98
2022-12-07T00:56:39.043Z,82.14
2022-12-07T00:59:07.016Z,81.22
2022-12-07T01:01:40.669Z,81.20
2022-12-07T01:04:09.005Z,81.82
2022-12-07T01:06:37.438Z,81.89
2022-12-07T01:09:07.050Z,82.38
2022-12-07T01:11:35.734Z,82.76
2022-12-07T01:14:05.912Z,81.87
2022-12-07T01:16:35.022Z,82.45
2022-12-07T01:19:05.474Z,82.94
2022-12-07T01:21:36.821Z,82.58
2022-12-07T01:24:07.051Z,81.76
2022-12-07T01:26:35.327Z,81.28
2022-12-07T01:29:07.161Z,81.26
2022-12-07T01:31:35.555Z,81.62
2022-12-07T01:34:04.332Z,81.12
2022-12-07T01:36:34.219Z,81.50
2022-12-07T01:39:08.974Z,80.21
2022-12-07T01:41:40.420Z,80.33
2022-12-07T01:44:20.204Z,80.36
2022-12-07T01:46:52.972Z,81.14
2022-12-07T01:49:25.734Z,80.32
2022-12-07T01:51:59.636Z,80.10
2022-12-07T01:54:28.019Z,79.94
2022-12-07T01:56:58.649Z,79.45
2022-12-07T01:59:28.191Z,79.66
2022-12-07T02:01:57.412Z,79.50
2022-12-07T02:04:26.522Z,79.05
2022-12-07T02:06:57.339Z,79.71
2022-12-07T02:09:25.871Z,79.87
2022-12-07T02:11:54.429Z,79.20
2022-12-07T02:14:23.334Z,80.07
2022-12-07T02:17:08.384Z,79.43
2022-12-07T02:20:16.112Z,78.83
2022-12-07T02:23:23.577Z,79.47
2022-12-07T02:26:06.460Z,78.29
2022-12-07T02:28:37.269Z,79.17
2022-12-07T02:31:10.007Z,79.40
2022-12-07T02:33:44.260Z,79.95
2022-12-07T02:36:15.087Z,80.17
2022-12-07T02:38:51.228Z,80.55
2022-12-07T02:41:25.462Z,80.45
2022-12-07T02:43:55.331Z,80.94
2022-12-07T02:46:28.124Z,81.33
2022-12-07T02:49:00.292Z,81.33
2022-12-07T02:51:32.121Z,82.02
2022-12-07T02:54:00.507Z,82.18
2022-12-07T02:56:36.505Z,82.56
2022-12-07T02:59:11.999Z,82.85
2022-12-07T03:01:52.480Z,83.31
2022-12-07T03:04:34.521Z,82.62
2022-12-07T03:07:07.956Z,83.24
2022-12-07T03:09:43.155Z,83.12
2022-12-07T03:12:16.517Z,83.35
2022-12-07T03:14:50.763Z,83.58
2022-12-07T03:17:23.178Z,83.12
2022-12-07T03:19:54.133Z,83.18
2022-12-07T03:22:25.729Z,83.70
2022-12-07T03:24:57.667Z,83.47
2022-12-07T03:27:27.994Z,83.51
2022-12-07T03:30:02.789Z,84.55
2022-12-07T03:32:36.657Z,84.39
2022-12-07T03:35:08.841Z,83.90
2022-12-07T03:37:41.485Z,84.14
2022-12-07T03:40:15.438Z,84.67
2022-12-07T03:42:43.788Z,84.74
2022-12-07T03:45:12.491Z,84.20
2022-12-07T03:47:47.522Z,85.11
2022-12-07T03:50:20.928Z,84.85
2022-12-07T03:52:52.654Z,84.56
2022-12-07T03:55:23.738Z,85.19
2022-12-07T03:57:54.837Z,85.57
2022-12-07T04:00:24.413Z,85.71
2022-12-07T04:02:55.302Z,86.25
2022-12-07T04:05:25.181Z,86.32
2022-12-07T04:07:54.849Z,87.07
2022-12-07T04:10:23.151Z,87.84
2022-12-07T04:12:51.212Z,88.41
2022-12-07T04:15:21.674Z,89.05
2022-12-07T04:17:50.819Z,88.48
2022-12-07T04:20:22.878Z,88.82
2022-12-07T04:22:52.434Z,89.12
2022-12-07T04:25:20.936Z,89.55
2022-12-07T04:27:48.885Z,90.03
2022-12-07T04:30:17.022Z,90.04
2022-12-07T04:32:46.216Z,89.82
2022-12-07T04:35:15.198Z,90.12
2022-12-07T04:37:49.287Z,89.63
2022-12-07T04:40:20.552Z,90.03
2022-12-07T04:42:49.046Z,90.48
2022-12-07T04:45:17.574Z,90.46
2022-12-07T04:47:46.212Z,90.28
2022-12-07T04:50:15.431Z,90.45
2022-12-07T04:52:44.786Z,91.33
2022-12-07T04:55:13.378Z,91.31
2022-12-07T04:57:44.391Z,91.13
2022-12-07T05:00:15.702Z,91.16
2022-12-07T05:02:43.757Z,90.88
2022-12-07T05:05:11.791Z,91.52
2022-12-07T05:07:41.637Z,91.38
2022-12-07T05:10:16.836Z,90.99
2022-12-07T05:12:46.338Z,91.57
2022-12-07T05:15:17.190Z,91.31
2022-12-07T05:17:46.456Z,91.32
2022-12-07T05:20:16.473Z,90.81
2022-12-07T05:22:45.531Z,90.88
2022-12-07T05:25:16.774Z,91.32
2022-12-07T05:27:46.196Z,91.42
2022-12-07T05:30:18.208Z,91.24
2022-12-07T05:32:46.479Z,91.59
2022-12-07T05:35:15.164Z,91.15
2022-12-07T05:37:43.545Z,91.72
2022-12-07T05:40:12.592Z,91.69
2022-12-07T05:42:41.420Z,91.38
2022-12-07T05:45:11.116Z,91.50
2022-12-07T05:47:40.787Z,91.57
2022-12-07T05:50:10.000Z,91.15
2022-12-07T05:52:38.036Z,91.30
2022-12-07T05:55:08.053Z,91.17
2022-12-07T05:57:38.590Z,91.67
2022-12-07T06:00:08.872Z,91.58
2022-12-07T06:02:41.982Z,91.40
2022-12-07T06:05:13.976Z,91.39
2022-12-07T06:07:43.016Z,91.74
2022-12-07T06:10:12.883Z,91.63
2022-12-07T06:12:40.472Z,91.06
2022-12-07T06:15:11.026Z,91.21
2022-12-07T06:17:41.661Z,91.21
2022-12-07T06:20:11.447Z,90.84
2022-12-07T06:22:39.544Z,91.09
2022-12-07T06:25:08.848Z,91.12
2022-12-07T06:27:37.058Z,91.00
2022-12-07T06:30:09.476Z,91.61
2022-12-07T06:32:39.756Z,91.51
2022-12-07T06:35:11.355Z,91.53
2022-12-07T06:37:39.271Z,91.77
2022-12-07T06:40:09.851Z,91.71
2022-12-07T06:42:37.851Z,91.76
2022-12-07T06:45:07.601Z,91.46
2022-12-07T06:47:46.141Z,92.16
2022-12-07T06:50:16.561Z,91.72
2022-12-07T06:52:44.818Z,92.08
2022-12-07T06:55:16.148Z,91.75
2022-12-07T06:57:44.510Z,91.59
2022-12-07T07:00:20.003Z,91.44
2022-12-07T07:02:50.113Z,91.26
2022-12-07T07:05:22.316Z,91.10
2022-12-07T07:08:20.998Z,91.65
2022-12-07T07:10:40.707Z,91.20
2022-12-07T07:13:10.982Z,91.16
2022-12-07T07:15:41.704Z,90.87
2022-12-07T07:18:10.694Z,91.33
2022-12-07T07:20:41.018Z,91.73
2022-12-07T07:23:12.373Z,90.63
2022-12-07T07:25:43.023Z,90.49
2022-12-07T07:28:12.859Z,90.62
2022-12-07T07:30:40.697Z,90.79
2022-12-07T07:33:08.936Z,90.05
2022-12-07T07:35:37.465Z,89.59
2022-12-07T07:38:09.529Z,89.88
2022-12-07T07:40:41.293Z,89.69
2022-12-07T07:43:09.532Z,88.97
2022-12-07T07:45:37.754Z,89.23
2022-12-07T07:48:07.884Z,89.60
2022-12-07T07:50:37.591Z,89.05
2022-12-07T07:53:12.331Z,88.70
2022-12-07T07:55:40.440Z,88.97
2022-12-07T07:58:08.687Z,88.46
2022-12-07T08:00:38.443Z,86.69
2022-12-07T08:03:08.345Z,86.78
2022-12-07T08:05:39.052Z,87.21
2022-12-07T08:08:11.319Z,86.93
2022-12-07T08:10:42.071Z,87.57
2022-12-07T08:13:14.815Z,87.33
2022-12-07T08:15:43.970Z,87.23
2022-12-07T08:18:13.730Z,87.70
2022-12-07T08:20:42.466Z,86.75
2022-12-07T08:23:13.923Z,87.16
2022-12-07T08:25:44.462Z,86.50
2022-12-07T08:28:12.692Z,86.78
2022-12-07T08:30:41.023Z,87.46
2022-12-07T08:33:09.179Z,86.07
2022-12-07T08:35:37.152Z,85.01
2022-12-07T08:38:05.680Z,85.23
2022-12-07T08:40:36.300Z,86.43
2022-12-07T08:43:04.852Z,85.16
2022-12-07T08:45:36.710Z,84.77
2022-12-07T08:48:06.543Z,83.64
2022-12-07T08:50:35.896Z,83.02
2022-12-07T08:53:05.505Z,81.02
2022-12-07T08:55:35.823Z,82.88
2022-12-07T08:58:05.409Z,81.49
2022-12-07T09:00:34.054Z,81.37
2022-12-07T09:03:03.645Z,82.06
2022-12-07T09:05:32.993Z,80.73
2022-12-07T09:08:03.355Z,81.18
2022-12-07T09:11:28.771Z,77.58
2022-12-07T09:15:11.020Z,78.49
2022-12-07T09:18:52.908Z,78.20
2022-12-07T09:22:35.107Z,77.38
2022-12-07T09:26:18.415Z,75.81
2022-12-07T09:30:00.260Z,74.97
2022-12-07T09:33:42.948Z,73.72
2022-12-07T09:37:24.899Z,74.51
2022-12-07T09:41:06.892Z,74.88
2022-12-07T09:44:48.521Z,75.34
2022-12-07T09:48:32.195Z,77.00
2022-12-07T09:52:15.420Z,74.24
2022-12-07T09:55:57.839Z,74.59
2022-12-07T09:59:40.333Z,74.77
2022-12-07T10:03:23.365Z,74.99
2022-12-07T10:07:04.702Z,74.48
2022-12-07T10:10:47.349Z,74.55
2022-12-07T10:14:58.802Z,75.00
2022-12-07T10:18:31.858Z,74.66
2022-12-07T10:22:14.292Z,73.71
2022-12-07T10:25:59.388Z,74.58
2022-12-07T10:29:42.507Z,73.53
2022-12-07T10:33:24.396Z,72.84
2022-12-07T10:37:07.455Z,73.02
2022-12-07T10:40:49.293Z,71.28
2022-12-07T10:44:30.567Z,71.16
2022-12-07T10:48:12.143Z,72.06
2022-12-07T10:51:53.765Z,72.29
2022-12-07T10:55:35.764Z,72.38
2022-12-07T10:59:17.884Z,74.10
2022-12-07T11:02:59.862Z,74.99
2022-12-07T11:06:41.790Z,74.67
2022-12-07T11:13:02.016Z,76.35
2022-12-07T11:15:36.074Z,75.47
2022-12-07T11:18:09.081Z,76.09
2022-12-07T11:20:44.112Z,75.21
2022-12-07T11:23:22.981Z,75.62
2022-12-07T11:25:57.154Z,75.14
2022-12-07T11:28:39.982Z,75.65
2022-12-07T11:31:15.411Z,75.83
2022-12-07T11:33:48.193Z,75.23
2022-12-07T11:36:33.980Z,75.29
2022-12-07T11:39:05.228Z,74.68
2022-12-07T11:41:37.797Z,74.26
2022-12-07T11:44:09.560Z,74.20
2022-12-07T11:46:47.334Z,74.37
2022-12-07T11:49:25.108Z,75.37
2022-12-07T11:51:56.038Z,75.03
2022-12-07T11:54:27.924Z,75.21
2022-12-07T11:56:58.850Z,75.36
2022-12-07T11:59:32.396Z,74.43
2022-12-07T12:02:05.359Z,75.53
2022-12-07T12:04:46.119Z,74.93
2022-12-07T12:10:15.378Z,74.40
2022-12-07T12:16:36.613Z,75.05
2022-12-07T12:19:20.606Z,74.39
2022-12-07T12:21:58.683Z,74.21
2022-12-07T12:24:37.621Z,74.75
2022-12-07T12:27:11.396Z,74.62
2022-12-07T12:29:42.424Z,74.38
2022-12-07T12:32:19.276Z,74.38
2022-12-07T12:35:13.308Z,74.91
2022-12-07T12:37:54.209Z,75.61
2022-12-07T12:40:52.279Z,75.65
2022-12-07T12:43:59.597Z,75.90
2022-12-07T12:47:03.237Z,75.48
2022-12-07T12:49:49.882Z,75.98
2022-12-07T12:52:56.265Z,74.68
2022-12-07T12:56:03.549Z,74.98
2022-12-07T12:58:45.822Z,75.15
2022-12-07T13:01:49.399Z,75.24
2022-12-07T13:05:01.705Z,75.14
2022-12-07T13:07:55.933Z,75.41
2022-12-07T13:10:43.661Z,75.73
2022-12-07T13:13:35.055Z,76.00
2022-12-07T13:16:42.001Z,75.61
2022-12-07T13:19:45.318Z,75.49
2022-12-07T13:22:54.392Z,75.34
2022-12-07T13:25:34.312Z,75.68
2022-12-07T13:28:07.950Z,75.46
2022-12-07T13:30:47.720Z,74.74
2022-12-07T13:33:17.888Z,75.58
2022-12-07T13:35:49.775Z,75.79
2022-12-07T13:38:25.352Z,75.94
2022-12-07T13:41:16.251Z,75.41
2022-12-07T13:43:51.408Z,75.82
2022-12-07T13:46:28.058Z,75.09
2022-12-07T13:49:00.659Z,75.51
2022-12-07T13:51:38.454Z,75.91
2022-12-07T13:54:18.806Z,76.28
2022-12-07T13:56:50.514Z,75.03
2022-12-07T13:59:20.673Z,75.62
2022-12-07T14:01:55.263Z,74.92
2022-12-07T14:04:38.269Z,75.62
2022-12-07T14:07:27.688Z,75.03
2022-12-07T14:09:59.061Z,75.58
2022-12-07T14:12:31.507Z,75.36
2022-12-07T14:15:01.901Z,74.95
2022-12-07T14:17:35.704Z,75.53
2022-12-07T14:20:26.941Z,75.92
2022-12-07T14:23:02.766Z,75.59
2022-12-07T14:25:34.820Z,75.36
2022-12-07T14:28:11.338Z,75.21
2022-12-07T14:30:50.351Z,75.38
2022-12-07T14:33:18.953Z,76.13
2022-12-07T14:35:51.310Z,75.32
2022-12-07T14:38:19.743Z,76.07
2022-12-07T14:40:48.341Z,76.07
2022-12-07T14:43:21.831Z,76.78
2022-12-07T14:45:52.431Z,76.73
2022-12-07T14:53:59.984Z,78.07
2022-12-07T14:56:28.955Z,77.95
2022-12-07T14:59:00.442Z,78.06
2022-12-07T15:01:30.086Z,78.38
2022-12-07T15:03:58.560Z,78.79
2022-12-07T15:06:27.356Z,78.76
2022-12-07T15:08:56.143Z,78.64
2022-12-07T15:11:24.450Z,78.64
2022-12-07T15:14:12.236Z,79.03
2022-12-07T15:17:07.252Z,79.15
2022-12-07T15:19:32.477Z,78.97
2022-12-07T15:22:02.042Z,78.83
2022-12-07T15:24:31.600Z,79.08
2022-12-07T15:26:59.946Z,78.65
2022-12-07T15:29:32.616Z,78.87
2022-12-07T15:32:02.408Z,78.76
2022-12-07T15:34:39.470Z,79.03
2022-12-07T15:37:09.411Z,78.79
2022-12-07T15:39:40.170Z,78.09
2022-12-07T15:42:08.289Z,78.46
2022-12-07T15:44:54.478Z,78.30
2022-12-07T15:47:26.879Z,78.66
2022-12-07T15:49:58.538Z,78.48
2022-12-07T15:52:26.923Z,78.55
2022-12-07T15:54:56.686Z,78.72
2022-12-07T15:57:32.016Z,78.71
2022-12-07T16:00:01.247Z,78.78
2022-12-07T16:02:40.059Z,78.71
2022-12-07T16:05:11.649Z,79.00
2022-12-07T16:07:42.396Z,78.83
2022-12-07T16:10:14.044Z,78.54
2022-12-07T16:12:43.988Z,78.71
2022-12-07T16:15:12.966Z,78.53
2022-12-07T16:17:44.368Z,78.93
2022-12-07T16:20:14.349Z,78.96
2022-12-07T16:22:51.353Z,78.53
2022-12-07T16:25:20.616Z,78.91
2022-12-07T16:27:53.062Z,78.11
2022-12-07T16:30:29.470Z,78.37
2022-12-07T16:33:02.464Z,78.52
2022-12-07T16:35:30.960Z,78.55
2022-12-07T16:37:58.996Z,78.42
2022-12-07T16:40:27.175Z,78.44
2022-12-07T16:42:56.632Z,78.35
2022-12-07T16:45:25.057Z,79.06
2022-12-07T16:47:56.777Z,78.92
2022-12-07T16:50:29.445Z,79.11
2022-12-07T16:53:00.040Z,79.29
2022-12-07T16:55:28.225Z,78.88
2022-12-07T16:57:57.137Z,78.46
2022-12-07T17:00:26.114Z,79.00
2022-12-07T17:02:56.173Z,78.68
2022-12-07T17:05:32.036Z,79.01
2022-12-07T17:08:07.457Z,79.12
2022-12-07T17:10:37.477Z,78.74
2022-12-07T17:13:26.817Z,78.80
2022-12-07T17:15:59.267Z,78.55
2022-12-07T17:18:29.610Z,78.15
2022-12-07T17:21:05.683Z,78.65
2022-12-07T17:23:37.351Z,78.41
2022-12-07T17:26:10.088Z,78.55
2022-12-07T17:28:39.490Z,78.21
2022-12-07T17:31:09.322Z,78.20
2022-12-07T17:33:38.634Z,78.60
2022-12-07T17:36:13.745Z,78.36
2022-12-07T17:38:42.321Z,78.70
2022-12-07T17:41:12.613Z,78.75
2022-12-07T17:43:41.458Z,78.82
2022-12-07T17:46:14.256Z,78.88
2022-12-07T17:48:42.842Z,79.02
2022-12-07T17:51:33.065Z,78.71
2022-12-07T17:54:02.539Z,78.64
2022-12-07T17:56:33.716Z,79.46
2022-12-07T17:59:05.442Z,79.58
2022-12-07T18:01:43.767Z,79.61
2022-12-07T18:04:12.442Z,79.81
2022-12-07T18:06:43.466Z,79.35
2022-12-07T18:09:14.655Z,79.30
2022-12-07T18:11:43.083Z,79.54
2022-12-07T18:14:13.166Z,79.39
2022-12-07T18:16:41.576Z,79.79
2022-12-07T18:19:17.235Z,79.47
2022-12-07T18:21:47.555Z,79.28
2022-12-07T18:24:17.843Z,79.54
2022-12-07T18:26:47.935Z,79.81
2022-12-07T18:29:20.539Z,79.76
2022-12-07T18:31:49.279Z,79.65
2022-12-07T18:34:19.624Z,79.93
2022-12-07T18:36:51.413Z,79.95
2022-12-07T18:39:20.669Z,79.95
2022-12-07T18:41:49.588Z,79.74
2022-12-07T18:44:20.386Z,79.80
2022-12-07T18:47:04.719Z,79.52
2022-12-07T18:49:33.157Z,79.98
2022-12-07T18:52:05.717Z,79.92
2022-12-07T18:54:33.676Z,80.20
2022-12-07T18:57:01.879Z,79.24
2022-12-07T18:59:50.180Z,79.80
2022-12-07T19:02:19.162Z,79.12
2022-12-07T19:04:47.648Z,79.22
2022-12-07T19:07:18.840Z,79.27
2022-12-07T19:09:47.391Z,79.80
2022-12-07T19:12:16.118Z,79.06
2022-12-07T19:14:45.396Z,79.94
2022-12-07T19:17:15.192Z,79.72
2022-12-07T19:19:45.387Z,79.20
2022-12-07T19:22:17.447Z,78.89
2022-12-07T19:24:48.278Z,78.83
2022-12-07T19:27:17.552Z,79.33
2022-12-07T19:29:47.772Z,79.73
2022-12-07T19:32:19.483Z,80.13
2022-12-07T19:34:48.503Z,80.18
2022-12-07T19:37:19.093Z,80.43
2022-12-07T19:39:48.128Z,81.26
2022-12-07T19:42:17.243Z,81.07
2022-12-07T19:44:45.690Z,81.35
2022-12-07T19:47:17.318Z,81.32
2022-12-07T19:49:48.187Z,81.44
2022-12-07T19:52:18.068Z,81.65
2022-12-07T19:54:46.318Z,81.43
2022-12-07T19:57:17.785Z,81.33
2022-12-07T19:59:47.689Z,81.46
2022-12-07T20:02:17.211Z,81.29
2022-12-07T20:04:45.843Z,81.60
2022-12-07T20:07:14.145Z,82.54
2022-12-07T20:09:44.940Z,82.36
2022-12-07T20:12:30.893Z,82.96
2022-12-07T20:15:00.827Z,82.74
2022-12-07T20:17:29.279Z,83.23
2022-12-07T20:19:58.251Z,83.20
2022-12-07T20:22:27.860Z,83.37
2022-12-07T20:24:57.911Z,83.04
2022-12-07T20:27:26.059Z,83.15
2022-12-07T20:29:54.223Z,83.67
2022-12-07T20:32:22.543Z,83.50
2022-12-07T20:34:52.036Z,84.09
2022-12-07T20:37:19.988Z,84.06
2022-12-07T20:39:51.726Z,84.35
2022-12-07T20:42:39.180Z,84.38
2022-12-07T20:45:10.749Z,83.70
2022-12-07T20:47:39.300Z,83.60
2022-12-07T20:50:10.965Z,83.76
2022-12-07T20:52:41.037Z,84.16
2022-12-07T20:55:09.519Z,84.41
2022-12-07T20:57:39.208Z,83.89
2022-12-07T21:00:08.924Z,83.67
2022-12-07T21:02:39.928Z,83.95
2022-12-07T21:05:08.201Z,84.18
2022-12-07T21:07:37.687Z,84.04
2022-12-07T21:10:07.147Z,84.16
2022-12-07T21:12:35.895Z,84.65
2022-12-07T21:15:06.806Z,85.05
2022-12-07T21:17:37.480Z,84.80
2022-12-07T21:20:08.807Z,85.18
2022-12-07T21:22:37.915Z,84.66
2022-12-07T21:25:07.183Z,84.59
2022-12-07T21:27:35.890Z,85.13
2022-12-07T21:30:14.097Z,84.88
2022-12-07T21:32:42.589Z,84.96
2022-12-07T21:35:12.326Z,84.76
2022-12-07T21:37:41.996Z,84.92
2022-12-07T21:40:16.661Z,84.75
2022-12-07T21:42:47.047Z,83.91
2022-12-07T21:45:16.899Z,84.46
2022-12-07T21:47:45.159Z,84.20
2022-12-07T21:50:13.542Z,84.67
2022-12-07T21:52:46.627Z,84.40
2022-12-07T21:55:15.198Z,84.53
2022-12-07T21:57:43.295Z,84.87
2022-12-07T22:00:15.680Z,84.81
2022-12-07T22:02:49.103Z,85.24
2022-12-07T22:05:18.031Z,85.32
2022-12-07T22:07:47.939Z,85.13
2022-12-07T22:10:28.064Z,85.38
2022-12-07T22:12:58.012Z,85.30
2022-12-07T22:15:26.005Z,85.34
2022-12-07T22:17:56.317Z,85.35
2022-12-07T22:20:27.147Z,85.57
2022-12-07T22:22:55.493Z,85.73
2022-12-07T22:25:26.758Z,86.22
2022-12-07T22:27:55.280Z,85.11
2022-12-07T22:30:23.723Z,85.61
2022-12-07T22:32:54.988Z,84.78
2022-12-07T22:35:25.598Z,84.97
2022-12-07T22:37:55.626Z,84.74
2022-12-07T22:40:23.586Z,84.94
2022-12-07T22:42:54.326Z,85.67
2022-12-07T22:45:29.210Z,84.72
2022-12-07T22:47:58.457Z,85.35
2022-12-07T22:50:32.081Z,84.97
2022-12-07T22:53:00.992Z,84.78
2022-12-07T22:55:32.254Z,85.04
2022-12-07T22:58:13.840Z,85.68
2022-12-07T23:00:56.535Z,85.34
2022-12-07T23:03:24.716Z,85.53
2022-12-07T23:05:57.063Z,85.47
2022-12-07T23:08:25.650Z,85.96
2022-12-07T23:10:55.150Z,86.02
2022-12-07T23:13:36.802Z,85.79
2022-12-07T23:16:12.269Z,85.17
2022-12-07T23:18:43.034Z,85.85
2022-12-07T23:21:12.807Z,86.06
2022-12-07T23:23:41.011Z,86.32
2022-12-07T23:26:11.928Z,85.88
2022-12-07T23:28:40.538Z,86.36
2022-12-07T23:31:12.256Z,86.28
2022-12-07T23:33:41.761Z,85.92
2022-12-07T23:36:13.731Z,86.34
2022-12-07T23:38:44.721Z,86.23
2022-12-07T23:41:18.097Z,86.82
2022-12-07T23:43:46.845Z,86.73
2022-12-07T23:46:18.343Z,86.37
2022-12-07T23:48:53.759Z,86.08
2022-12-07T23:51:26.767Z,85.97
2022-12-07T23:53:57.473Z,86.77
2022-12-07T23:56:26.990Z,86.22
2022-12-07T23:58:57.097Z,87.00
